Inukjuak, Inukjuak Airport (CYPH)

NameInukjuak Airport
CityInukjuak
CountryCanada
ICAOCYPH
IATAYPH
Altitude26 m
CoordinatesGoogle Map
Live Air TrafficLiveATC.net
METARCYPH 210100Z AUTO 28008KT 9SM OVC019 M20/M23 A2979 RMK SLP093
2020-01-21 01:00:00 Wind: West (280°) 4.12 m/s - Visibility: 14484.06 m - Temperature: -20 °C - Dew point: -23 °C - Humidity: 77.1% - Pressure: 1008.81 hPa
Statistics

The table below shows the detailed information of all flights to/from Inukjuak, Inukjuak Airport (CYPH).